sensor_id;sensor_type;location;lat;lon;timestamp;pressure;altitude;pressure_sealevel;temperature;humidity
64683;BME280;51107;47.652;19.016;2023-03-30T00:01:13;100396.19;;;4.78;78.57
64683;BME280;51107;47.652;19.016;2023-03-30T00:03:45;100386.94;;;4.88;77.44
64683;BME280;51107;47.652;19.016;2023-03-30T00:06:15;100390.47;;;5.00;77.24
64683;BME280;51107;47.652;19.016;2023-03-30T00:08:52;100391.31;;;5.00;77.50
64683;BME280;51107;47.652;19.016;2023-03-30T00:11:25;100383.16;;;5.06;77.19
64683;BME280;51107;47.652;19.016;2023-03-30T00:13:54;100393.09;;;5.13;77.85
64683;BME280;51107;47.652;19.016;2023-03-30T00:16:22;100393.72;;;5.16;78.08
64683;BME280;51107;47.652;19.016;2023-03-30T00:18:51;100390.09;;;5.19;79.12
64683;BME280;51107;47.652;19.016;2023-03-30T00:21:19;100383.09;;;5.21;79.15
64683;BME280;51107;47.652;19.016;2023-03-30T00:23:48;100370.91;;;5.36;76.00
64683;BME280;51107;47.652;19.016;2023-03-30T00:26:19;100378.66;;;5.36;75.72
64683;BME280;51107;47.652;19.016;2023-03-30T00:28:48;100377.03;;;5.35;77.06
64683;BME280;51107;47.652;19.016;2023-03-30T00:31:16;100365.81;;;5.08;77.68
64683;BME280;51107;47.652;19.016;2023-03-30T00:33:45;100374.81;;;5.03;78.05
64683;BME280;51107;47.652;19.016;2023-03-30T00:36:15;100376.25;;;5.07;78.03
64683;BME280;51107;47.652;19.016;2023-03-30T00:38:44;100363.72;;;4.88;78.74
64683;BME280;51107;47.652;19.016;2023-03-30T00:41:14;100366.66;;;4.82;79.04
64683;BME280;51107;47.652;19.016;2023-03-30T00:44:05;100364.84;;;4.84;78.90
64683;BME280;51107;47.652;19.016;2023-03-30T00:46:34;100354.41;;;4.85;79.32
64683;BME280;51107;47.652;19.016;2023-03-30T00:49:05;100364.84;;;4.97;79.72
64683;BME280;51107;47.652;19.016;2023-03-30T00:51:39;100358.13;;;4.94;80.06
64683;BME280;51107;47.652;19.016;2023-03-30T00:54:15;100357.59;;;4.89;80.65
64683;BME280;51107;47.652;19.016;2023-03-30T00:56:45;100342.09;;;4.76;81.44
64683;BME280;51107;47.652;19.016;2023-03-30T00:59:13;100346.56;;;4.87;81.26
64683;BME280;51107;47.652;19.016;2023-03-30T01:01:43;100337.00;;;5.02;79.45
64683;BME280;51107;47.652;19.016;2023-03-30T01:04:17;100341.72;;;4.82;80.73
64683;BME280;51107;47.652;19.016;2023-03-30T01:06:46;100340.53;;;4.73;81.60
64683;BME280;51107;47.652;19.016;2023-03-30T01:09:17;100336.94;;;4.76;81.92
64683;BME280;51107;47.652;19.016;2023-03-30T01:11:46;100326.38;;;4.66;81.40
64683;BME280;51107;47.652;19.016;2023-03-30T01:14:15;100326.56;;;4.63;81.93
64683;BME280;51107;47.652;19.016;2023-03-30T01:20:33;100318.97;;;4.74;80.08
64683;BME280;51107;47.652;19.016;2023-03-30T01:29:56;100314.34;;;4.80;82.56
64683;BME280;51107;47.652;19.016;2023-03-30T01:32:40;100307.56;;;4.64;81.96
64683;BME280;51107;47.652;19.016;2023-03-30T01:43:49;100294.06;;;4.33;82.84
64683;BME280;51107;47.652;19.016;2023-03-30T01:46:27;100298.91;;;4.38;82.19
64683;BME280;51107;47.652;19.016;2023-03-30T01:49:13;100298.31;;;4.34;82.13
64683;BME280;51107;47.652;19.016;2023-03-30T01:52:09;100304.94;;;4.24;82.78
64683;BME280;51107;47.652;19.016;2023-03-30T01:54:47;100308.13;;;4.15;83.23
64683;BME280;51107;47.652;19.016;2023-03-30T01:57:21;100305.63;;;4.13;83.49
64683;BME280;51107;47.652;19.016;2023-03-30T01:59:58;100297.84;;;4.00;83.27
64683;BME280;51107;47.652;19.016;2023-03-30T02:02:29;100283.63;;;4.07;82.43
64683;BME280;51107;47.652;19.016;2023-03-30T02:05:02;100289.62;;;4.08;82.69
64683;BME280;51107;47.652;19.016;2023-03-30T02:07:34;100286.16;;;3.95;83.52
64683;BME280;51107;47.652;19.016;2023-03-30T02:10:07;100296.78;;;3.47;84.69
64683;BME280;51107;47.652;19.016;2023-03-30T02:12:37;100286.00;;;3.40;85.65
64683;BME280;51107;47.652;19.016;2023-03-30T02:15:08;100297.31;;;3.66;83.60
64683;BME280;51107;47.652;19.016;2023-03-30T02:17:37;100281.59;;;3.71;83.06
64683;BME280;51107;47.652;19.016;2023-03-30T02:20:07;100278.81;;;3.74;82.96
64683;BME280;51107;47.652;19.016;2023-03-30T02:22:39;100290.03;;;3.15;85.16
64683;BME280;51107;47.652;19.016;2023-03-30T02:25:08;100284.69;;;3.04;86.59
64683;BME280;51107;47.652;19.016;2023-03-30T02:27:37;100271.56;;;3.23;86.52
64683;BME280;51107;47.652;19.016;2023-03-30T02:30:06;100281.97;;;3.36;85.17
64683;BME280;51107;47.652;19.016;2023-03-30T02:32:51;100278.19;;;3.27;85.41
64683;BME280;51107;47.652;19.016;2023-03-30T02:41:32;100288.75;;;3.08;87.42
64683;BME280;51107;47.652;19.016;2023-03-30T02:44:46;100274.16;;;3.23;86.73
64683;BME280;51107;47.652;19.016;2023-03-30T02:55:33;100288.41;;;3.14;87.92
64683;BME280;51107;47.652;19.016;2023-03-30T02:58:15;100278.81;;;3.16;87.59
64683;BME280;51107;47.652;19.016;2023-03-30T03:00:50;100286.44;;;3.18;87.53
64683;BME280;51107;47.652;19.016;2023-03-30T03:03:24;100281.78;;;3.25;89.13
64683;BME280;51107;47.652;19.016;2023-03-30T03:05:55;100282.41;;;3.43;88.43
64683;BME280;51107;47.652;19.016;2023-03-30T03:08:24;100285.38;;;3.51;89.36
64683;BME280;51107;47.652;19.016;2023-03-30T03:10:56;100290.78;;;3.61;89.01
64683;BME280;51107;47.652;19.016;2023-03-30T03:13:24;100285.47;;;3.64;88.44
64683;BME280;51107;47.652;19.016;2023-03-30T03:15:53;100289.69;;;3.21;89.01
64683;BME280;51107;47.652;19.016;2023-03-30T03:18:25;100299.31;;;3.18;89.40
64683;BME280;51107;47.652;19.016;2023-03-30T03:20:54;100299.16;;;3.35;89.37
64683;BME280;51107;47.652;19.016;2023-03-30T03:23:22;100300.19;;;3.47;88.78
64683;BME280;51107;47.652;19.016;2023-03-30T03:25:51;100297.22;;;3.10;89.31
64683;BME280;51107;47.652;19.016;2023-03-30T03:28:20;100297.78;;;3.30;88.67
64683;BME280;51107;47.652;19.016;2023-03-30T03:30:49;100302.41;;;3.39;88.33
64683;BME280;51107;47.652;19.016;2023-03-30T03:33:18;100301.81;;;3.48;88.76
64683;BME280;51107;47.652;19.016;2023-03-30T03:35:47;100299.53;;;3.58;88.80
64683;BME280;51107;47.652;19.016;2023-03-30T03:38:21;100306.25;;;3.61;89.27
64683;BME280;51107;47.652;19.016;2023-03-30T03:40:51;100299.53;;;3.44;90.12
64683;BME280;51107;47.652;19.016;2023-03-30T03:43:20;100282.62;;;3.39;90.09
64683;BME280;51107;47.652;19.016;2023-03-30T03:45:50;100293.09;;;3.51;90.00
64683;BME280;51107;47.652;19.016;2023-03-30T03:48:20;100290.12;;;3.71;89.78
64683;BME280;51107;47.652;19.016;2023-03-30T03:50:54;100285.34;;;3.80;90.96
64683;BME280;51107;47.652;19.016;2023-03-30T03:53:26;100274.13;;;3.66;89.58
64683;BME280;51107;47.652;19.016;2023-03-30T03:55:55;100285.19;;;3.54;89.62
64683;BME280;51107;47.652;19.016;2023-03-30T03:58:24;100287.50;;;3.59;88.53
64683;BME280;51107;47.652;19.016;2023-03-30T04:01:00;100282.97;;;3.77;88.67
64683;BME280;51107;47.652;19.016;2023-03-30T04:03:30;100292.62;;;3.87;88.13
64683;BME280;51107;47.652;19.016;2023-03-30T04:05:59;100289.94;;;3.89;88.91
64683;BME280;51107;47.652;19.016;2023-03-30T04:08:28;100283.91;;;3.61;88.92
64683;BME280;51107;47.652;19.016;2023-03-30T04:11:11;100286.28;;;3.35;89.13
64683;BME280;51107;47.652;19.016;2023-03-30T04:13:40;100282.06;;;3.34;88.89
64683;BME280;51107;47.652;19.016;2023-03-30T04:16:09;100273.69;;;3.45;88.37
64683;BME280;51107;47.652;19.016;2023-03-30T04:18:38;100276.72;;;3.37;88.84
64683;BME280;51107;47.652;19.016;2023-03-30T04:21:09;100271.41;;;3.40;88.45
64683;BME280;51107;47.652;19.016;2023-03-30T04:23:40;100271.31;;;3.42;89.12
64683;BME280;51107;47.652;19.016;2023-03-30T04:26:15;100266.97;;;3.57;88.94
64683;BME280;51107;47.652;19.016;2023-03-30T04:28:45;100272.59;;;3.64;89.10
64683;BME280;51107;47.652;19.016;2023-03-30T04:31:14;100274.06;;;3.68;89.22
64683;BME280;51107;47.652;19.016;2023-03-30T04:33:42;100272.66;;;3.62;89.58
64683;BME280;51107;47.652;19.016;2023-03-30T04:36:21;100280.13;;;3.52;89.82
64683;BME280;51107;47.652;19.016;2023-03-30T04:38:50;100274.69;;;3.43;90.18
64683;BME280;51107;47.652;19.016;2023-03-30T04:41:30;100272.38;;;3.52;90.26
64683;BME280;51107;47.652;19.016;2023-03-30T04:44:05;100266.50;;;3.65;89.63
64683;BME280;51107;47.652;19.016;2023-03-30T04:46:35;100260.78;;;3.74;90.89
64683;BME280;51107;47.652;19.016;2023-03-30T04:49:03;100265.47;;;3.67;91.39
64683;BME280;51107;47.652;19.016;2023-03-30T04:51:35;100262.00;;;3.68;90.82
64683;BME280;51107;47.652;19.016;2023-03-30T04:54:05;100256.19;;;3.79;90.08
64683;BME280;51107;47.652;19.016;2023-03-30T04:56:33;100260.47;;;3.79;90.42
64683;BME280;51107;47.652;19.016;2023-03-30T04:59:01;100250.53;;;3.87;90.21
64683;BME280;51107;47.652;19.016;2023-03-30T05:01:30;100253.66;;;3.92;89.72
64683;BME280;51107;47.652;19.016;2023-03-30T05:03:59;100252.50;;;3.83;89.48
64683;BME280;51107;47.652;19.016;2023-03-30T05:06:28;100245.31;;;3.88;89.57
64683;BME280;51107;47.652;19.016;2023-03-30T05:08:59;100244.19;;;3.93;89.37
64683;BME280;51107;47.652;19.016;2023-03-30T05:11:30;100252.94;;;3.76;89.36
64683;BME280;51107;47.652;19.016;2023-03-30T05:13:59;100267.75;;;3.86;88.51
64683;BME280;51107;47.652;19.016;2023-03-30T05:16:27;100258.97;;;4.03;88.15
64683;BME280;51107;47.652;19.016;2023-03-30T05:18:57;100254.66;;;4.04;89.77
64683;BME280;51107;47.652;19.016;2023-03-30T05:21:26;100255.47;;;4.04;89.19
64683;BME280;51107;47.652;19.016;2023-03-30T05:23:55;100252.16;;;4.02;89.25
64683;BME280;51107;47.652;19.016;2023-03-30T05:26:24;100244.72;;;3.98;87.83
64683;BME280;51107;47.652;19.016;2023-03-30T05:28:53;100249.00;;;4.12;87.68
64683;BME280;51107;47.652;19.016;2023-03-30T05:31:22;100254.22;;;4.24;88.20
64683;BME280;51107;47.652;19.016;2023-03-30T05:33:51;100252.31;;;4.41;88.26
64683;BME280;51107;47.652;19.016;2023-03-30T05:36:21;100251.63;;;4.52;87.26
64683;BME280;51107;47.652;19.016;2023-03-30T05:38:49;100250.59;;;4.67;85.02
64683;BME280;51107;47.652;19.016;2023-03-30T05:41:19;100248.97;;;4.79;84.70
64683;BME280;51107;47.652;19.016;2023-03-30T05:43:48;100263.94;;;4.87;81.85
64683;BME280;51107;47.652;19.016;2023-03-30T05:46:16;100250.00;;;4.89;81.40
64683;BME280;51107;47.652;19.016;2023-03-30T05:48:45;100252.91;;;4.98;79.93
64683;BME280;51107;47.652;19.016;2023-03-30T05:51:15;100251.47;;;5.06;80.58
64683;BME280;51107;47.652;19.016;2023-03-30T05:53:45;100241.53;;;5.13;79.22
64683;BME280;51107;47.652;19.016;2023-03-30T05:56:14;100242.47;;;5.25;79.23
64683;BME280;51107;47.652;19.016;2023-03-30T05:58:45;100234.41;;;5.30;78.49
64683;BME280;51107;47.652;19.016;2023-03-30T06:01:14;100237.81;;;5.30;76.81
64683;BME280;51107;47.652;19.016;2023-03-30T06:03:43;100234.19;;;5.46;76.26
64683;BME280;51107;47.652;19.016;2023-03-30T06:06:12;100234.97;;;5.59;74.60
64683;BME280;51107;47.652;19.016;2023-03-30T06:08:41;100239.28;;;5.71;74.18
64683;BME280;51107;47.652;19.016;2023-03-30T06:11:12;100235.72;;;5.85;74.24
64683;BME280;51107;47.652;19.016;2023-03-30T06:13:42;100238.59;;;5.93;71.65
64683;BME280;51107;47.652;19.016;2023-03-30T06:16:11;100237.28;;;6.01;71.07
64683;BME280;51107;47.652;19.016;2023-03-30T06:18:39;100243.87;;;6.05;71.05
64683;BME280;51107;47.652;19.016;2023-03-30T06:21:07;100238.19;;;6.00;68.66
64683;BME280;51107;47.652;19.016;2023-03-30T06:23:37;100230.63;;;5.97;68.44
64683;BME280;51107;47.652;19.016;2023-03-30T06:26:08;100233.13;;;5.98;67.45
64683;BME280;51107;47.652;19.016;2023-03-30T06:28:37;100213.34;;;5.97;67.14
64683;BME280;51107;47.652;19.016;2023-03-30T06:31:09;100228.56;;;6.02;68.08
64683;BME280;51107;47.652;19.016;2023-03-30T06:33:38;100221.06;;;6.10;67.15
64683;BME280;51107;47.652;19.016;2023-03-30T06:36:10;100213.19;;;6.11;67.71
64683;BME280;51107;47.652;19.016;2023-03-30T06:38:39;100214.31;;;6.20;68.65
64683;BME280;51107;47.652;19.016;2023-03-30T06:41:08;100221.84;;;6.23;68.65
64683;BME280;51107;47.652;19.016;2023-03-30T06:43:39;100215.84;;;6.23;66.52
64683;BME280;51107;47.652;19.016;2023-03-30T06:46:10;100207.75;;;6.27;67.22
64683;BME280;51107;47.652;19.016;2023-03-30T06:48:41;100219.97;;;6.25;66.14
64683;BME280;51107;47.652;19.016;2023-03-30T06:51:14;100226.91;;;6.25;67.57
64683;BME280;51107;47.652;19.016;2023-03-30T06:53:43;100224.53;;;6.22;67.19
64683;BME280;51107;47.652;19.016;2023-03-30T06:56:11;100216.81;;;6.33;69.15
64683;BME280;51107;47.652;19.016;2023-03-30T06:58:41;100219.25;;;6.23;67.87
64683;BME280;51107;47.652;19.016;2023-03-30T07:01:11;100217.44;;;6.37;67.02
64683;BME280;51107;47.652;19.016;2023-03-30T07:03:40;100219.28;;;6.35;68.28
64683;BME280;51107;47.652;19.016;2023-03-30T07:06:10;100213.19;;;6.36;68.91
64683;BME280;51107;47.652;19.016;2023-03-30T07:08:39;100205.78;;;6.31;68.39
64683;BME280;51107;47.652;19.016;2023-03-30T07:11:08;100206.25;;;6.36;68.43
64683;BME280;51107;47.652;19.016;2023-03-30T07:13:38;100219.91;;;6.38;67.42
64683;BME280;51107;47.652;19.016;2023-03-30T07:16:06;100209.09;;;6.44;67.39
64683;BME280;51107;47.652;19.016;2023-03-30T07:18:35;100206.41;;;6.46;67.48
64683;BME280;51107;47.652;19.016;2023-03-30T07:21:04;100195.72;;;6.51;68.80
64683;BME280;51107;47.652;19.016;2023-03-30T07:23:34;100190.78;;;6.59;67.78
64683;BME280;51107;47.652;19.016;2023-03-30T07:26:03;100198.44;;;6.60;65.74
64683;BME280;51107;47.652;19.016;2023-03-30T07:28:37;100208.44;;;6.65;66.57
64683;BME280;51107;47.652;19.016;2023-03-30T07:31:09;100213.41;;;6.68;66.70
64683;BME280;51107;47.652;19.016;2023-03-30T07:33:41;100205.88;;;6.76;67.17
64683;BME280;51107;47.652;19.016;2023-03-30T07:36:11;100210.22;;;6.76;67.08
64683;BME280;51107;47.652;19.016;2023-03-30T07:38:39;100202.13;;;6.92;66.60
64683;BME280;51107;47.652;19.016;2023-03-30T07:41:11;100203.19;;;7.12;65.62
64683;BME280;51107;47.652;19.016;2023-03-30T07:43:40;100220.06;;;7.29;65.38
64683;BME280;51107;47.652;19.016;2023-03-30T07:46:10;100216.87;;;7.48;64.47
64683;BME280;51107;47.652;19.016;2023-03-30T07:48:40;100211.38;;;7.74;64.83
64683;BME280;51107;47.652;19.016;2023-03-30T07:51:10;100216.66;;;7.95;63.38
64683;BME280;51107;47.652;19.016;2023-03-30T07:53:41;100220.31;;;8.25;63.39
64683;BME280;51107;47.652;19.016;2023-03-30T07:56:11;100204.84;;;8.23;61.07
64683;BME280;51107;47.652;19.016;2023-03-30T07:58:40;100214.50;;;8.32;61.08
64683;BME280;51107;47.652;19.016;2023-03-30T08:01:10;100210.31;;;8.53;61.14
64683;BME280;51107;47.652;19.016;2023-03-30T08:03:39;100211.13;;;8.21;59.53
64683;BME280;51107;47.652;19.016;2023-03-30T08:06:08;100206.31;;;8.48;60.79
64683;BME280;51107;47.652;19.016;2023-03-30T08:08:38;100212.03;;;8.31;60.64
64683;BME280;51107;47.652;19.016;2023-03-30T08:11:08;100219.03;;;8.52;59.78
64683;BME280;51107;47.652;19.016;2023-03-30T08:13:38;100212.25;;;8.81;60.33
64683;BME280;51107;47.652;19.016;2023-03-30T08:16:06;100221.25;;;8.77;60.60
64683;BME280;51107;47.652;19.016;2023-03-30T08:18:36;100219.97;;;8.93;60.72
64683;BME280;51107;47.652;19.016;2023-03-30T08:21:04;100205.25;;;8.40;58.07
64683;BME280;51107;47.652;19.016;2023-03-30T08:23:33;100204.41;;;8.18;59.44
64683;BME280;51107;47.652;19.016;2023-03-30T08:26:02;100200.31;;;8.04;59.29
64683;BME280;51107;47.652;19.016;2023-03-30T08:28:30;100204.72;;;8.04;59.94
64683;BME280;51107;47.652;19.016;2023-03-30T08:31:03;100193.41;;;8.26;59.51
64683;BME280;51107;47.652;19.016;2023-03-30T08:33:33;100214.63;;;7.98;59.59
64683;BME280;51107;47.652;19.016;2023-03-30T08:36:02;100203.88;;;8.03;60.61
64683;BME280;51107;47.652;19.016;2023-03-30T08:38:31;100201.03;;;8.06;60.38
64683;BME280;51107;47.652;19.016;2023-03-30T08:41:00;100205.28;;;8.07;60.74
64683;BME280;51107;47.652;19.016;2023-03-30T08:43:51;100207.97;;;8.06;60.64
64683;BME280;51107;47.652;19.016;2023-03-30T08:46:20;100215.66;;;8.07;61.76
64683;BME280;51107;47.652;19.016;2023-03-30T08:48:49;100213.84;;;7.87;61.08
64683;BME280;51107;47.652;19.016;2023-03-30T08:51:21;100210.06;;;7.79;60.43
64683;BME280;51107;47.652;19.016;2023-03-30T08:53:55;100204.00;;;8.02;62.13
64683;BME280;51107;47.652;19.016;2023-03-30T08:56:30;100192.59;;;8.25;61.30
64683;BME280;51107;47.652;19.016;2023-03-30T09:04:58;100186.13;;;8.20;61.35
64683;BME280;51107;47.652;19.016;2023-03-30T09:07:39;100185.53;;;7.95;60.45
64683;BME280;51107;47.652;19.016;2023-03-30T09:10:13;100180.09;;;7.98;61.45
64683;BME280;51107;47.652;19.016;2023-03-30T09:15:28;100183.81;;;8.05;61.60
64683;BME280;51107;47.652;19.016;2023-03-30T09:18:06;100189.53;;;8.41;61.82
64683;BME280;51107;47.652;19.016;2023-03-30T09:20:42;100180.88;;;8.31;61.19
64683;BME280;51107;47.652;19.016;2023-03-30T09:23:15;100164.66;;;8.50;62.00
64683;BME280;51107;47.652;19.016;2023-03-30T09:25:55;100162.03;;;8.71;62.04
64683;BME280;51107;47.652;19.016;2023-03-30T09:31:50;100156.47;;;8.86;62.66
64683;BME280;51107;47.652;19.016;2023-03-30T09:34:26;100147.72;;;8.87;61.73
64683;BME280;51107;47.652;19.016;2023-03-30T09:37:05;100144.97;;;8.78;60.46
64683;BME280;51107;47.652;19.016;2023-03-30T09:39:35;100138.56;;;8.82;60.06
64683;BME280;51107;47.652;19.016;2023-03-30T09:47:42;100143.94;;;9.31;58.44
64683;BME280;51107;47.652;19.016;2023-03-30T09:50:16;100137.66;;;9.44;58.79
64683;BME280;51107;47.652;19.016;2023-03-30T09:53:02;100138.25;;;9.67;59.10
64683;BME280;51107;47.652;19.016;2023-03-30T09:55:31;100144.53;;;9.55;57.92
64683;BME280;51107;47.652;19.016;2023-03-30T09:58:17;100139.34;;;9.84;58.08
64683;BME280;51107;47.652;19.016;2023-03-30T10:01:20;100134.66;;;9.68;57.99
64683;BME280;51107;47.652;19.016;2023-03-30T10:04:08;100131.13;;;9.69;57.86
64683;BME280;51107;47.652;19.016;2023-03-30T10:06:55;100129.72;;;10.04;59.38
64683;BME280;51107;47.652;19.016;2023-03-30T10:09:31;100134.69;;;9.88;57.19
64683;BME280;51107;47.652;19.016;2023-03-30T10:11:59;100121.94;;;9.45;60.08
64683;BME280;51107;47.652;19.016;2023-03-30T10:14:31;100116.88;;;9.54;59.84
64683;BME280;51107;47.652;19.016;2023-03-30T10:17:02;100116.19;;;9.61;59.49
64683;BME280;51107;47.652;19.016;2023-03-30T10:19:33;100110.97;;;9.51;58.86
64683;BME280;51107;47.652;19.016;2023-03-30T10:22:14;100103.44;;;9.68;61.13
64683;BME280;51107;47.652;19.016;2023-03-30T10:24:51;100116.59;;;9.76;61.09
64683;BME280;51107;47.652;19.016;2023-03-30T10:27:32;100104.28;;;9.88;59.33
64683;BME280;51107;47.652;19.016;2023-03-30T10:30:11;100101.53;;;9.99;60.97
64683;BME280;51107;47.652;19.016;2023-03-30T10:32:45;100096.16;;;10.11;59.39
64683;BME280;51107;47.652;19.016;2023-03-30T10:35:19;100088.59;;;10.37;60.11
64683;BME280;51107;47.652;19.016;2023-03-30T10:37:51;100085.59;;;10.32;57.40
64683;BME280;51107;47.652;19.016;2023-03-30T10:40:39;100081.47;;;10.29;58.15
64683;BME280;51107;47.652;19.016;2023-03-30T10:43:17;100076.56;;;10.36;59.23
64683;BME280;51107;47.652;19.016;2023-03-30T10:45:52;100069.28;;;10.30;58.91
64683;BME280;51107;47.652;19.016;2023-03-30T10:48:43;100057.22;;;10.29;57.80
64683;BME280;51107;47.652;19.016;2023-03-30T10:51:37;100051.50;;;10.15;58.77
64683;BME280;51107;47.652;19.016;2023-03-30T10:54:29;100054.34;;;10.32;59.23
64683;BME280;51107;47.652;19.016;2023-03-30T10:57:09;100051.81;;;10.60;59.28
64683;BME280;51107;47.652;19.016;2023-03-30T11:02:59;100040.66;;;10.95;57.19
64683;BME280;51107;47.652;19.016;2023-03-30T11:05:33;100037.59;;;11.00;56.79
64683;BME280;51107;47.652;19.016;2023-03-30T11:08:12;100045.31;;;10.92;57.25
64683;BME280;51107;47.652;19.016;2023-03-30T11:10:45;100055.25;;;10.78;57.75
64683;BME280;51107;47.652;19.016;2023-03-30T11:13:23;100048.91;;;10.63;57.34
64683;BME280;51107;47.652;19.016;2023-03-30T11:16:04;100058.56;;;10.33;58.53
64683;BME280;51107;47.652;19.016;2023-03-30T11:26:21;100043.63;;;10.45;60.71
64683;BME280;51107;47.652;19.016;2023-03-30T11:28:57;100034.28;;;10.52;59.90
64683;BME280;51107;47.652;19.016;2023-03-30T11:31:41;100022.03;;;10.62;59.63
64683;BME280;51107;47.652;19.016;2023-03-30T11:34:25;100024.94;;;10.49;59.53
64683;BME280;51107;47.652;19.016;2023-03-30T11:37:01;100023.59;;;10.55;58.73
64683;BME280;51107;47.652;19.016;2023-03-30T11:39:39;100021.62;;;10.85;60.59
64683;BME280;51107;47.652;19.016;2023-03-30T11:42:24;100016.25;;;10.86;59.44
64683;BME280;51107;47.652;19.016;2023-03-30T11:44:54;100020.94;;;11.11;59.50
64683;BME280;51107;47.652;19.016;2023-03-30T11:47:49;100017.38;;;11.12;58.37
64683;BME280;51107;47.652;19.016;2023-03-30T11:50:28;100009.81;;;11.09;58.43
64683;BME280;51107;47.652;19.016;2023-03-30T11:58:39;100000.66;;;11.22;58.78
64683;BME280;51107;47.652;19.016;2023-03-30T12:04:54;99999.19;;;11.38;58.55
64683;BME280;51107;47.652;19.016;2023-03-30T12:07:46;99982.78;;;11.28;60.12
64683;BME280;51107;47.652;19.016;2023-03-30T12:10:27;99984.25;;;11.48;60.36
64683;BME280;51107;47.652;19.016;2023-03-30T12:12:59;99970.03;;;11.43;59.25
64683;BME280;51107;47.652;19.016;2023-03-30T12:15:49;99961.72;;;11.47;58.87
64683;BME280;51107;47.652;19.016;2023-03-30T12:21:32;99960.03;;;11.82;59.65
64683;BME280;51107;47.652;19.016;2023-03-30T12:26:41;99934.28;;;11.87;59.30
64683;BME280;51107;47.652;19.016;2023-03-30T12:32:33;99924.56;;;11.98;58.71
64683;BME280;51107;47.652;19.016;2023-03-30T12:35:44;99931.87;;;11.94;60.12
64683;BME280;51107;47.652;19.016;2023-03-30T12:38:20;99916.19;;;11.86;59.32
64683;BME280;51107;47.652;19.016;2023-03-30T12:41:05;99921.41;;;11.86;58.25
64683;BME280;51107;47.652;19.016;2023-03-30T12:43:48;99907.63;;;12.02;58.66
64683;BME280;51107;47.652;19.016;2023-03-30T12:57:37;99890.66;;;12.06;59.47
64683;BME280;51107;47.652;19.016;2023-03-30T13:06:13;99885.38;;;12.32;60.48
64683;BME280;51107;47.652;19.016;2023-03-30T13:08:45;99875.06;;;12.22;59.93
64683;BME280;51107;47.652;19.016;2023-03-30T13:11:16;99882.09;;;12.30;61.00
64683;BME280;51107;47.652;19.016;2023-03-30T13:24:52;99877.50;;;12.24;60.96
64683;BME280;51107;47.652;19.016;2023-03-30T13:27:28;99867.06;;;12.24;61.86
64683;BME280;51107;47.652;19.016;2023-03-30T13:30:04;99872.28;;;12.24;61.96
64683;BME280;51107;47.652;19.016;2023-03-30T13:52:03;99840.63;;;12.35;62.94
64683;BME280;51107;47.652;19.016;2023-03-30T13:54:33;99837.91;;;12.45;62.36
64683;BME280;51107;47.652;19.016;2023-03-30T14:00:23;99821.03;;;12.39;62.74
64683;BME280;51107;47.652;19.016;2023-03-30T14:02:56;99814.84;;;12.40;62.13
64683;BME280;51107;47.652;19.016;2023-03-30T14:05:26;99816.31;;;12.43;63.16
64683;BME280;51107;47.652;19.016;2023-03-30T14:07:56;99811.78;;;12.45;62.15
64683;BME280;51107;47.652;19.016;2023-03-30T14:10:25;99798.19;;;12.42;62.13
64683;BME280;51107;47.652;19.016;2023-03-30T14:12:55;99786.94;;;12.41;61.52
64683;BME280;51107;47.652;19.016;2023-03-30T14:15:31;99777.47;;;12.48;62.43
64683;BME280;51107;47.652;19.016;2023-03-30T14:18:02;99781.56;;;12.51;62.93
64683;BME280;51107;47.652;19.016;2023-03-30T14:20:49;99771.28;;;12.49;62.53
64683;BME280;51107;47.652;19.016;2023-03-30T14:23:29;99768.00;;;12.47;63.70
64683;BME280;51107;47.652;19.016;2023-03-30T14:26:01;99769.62;;;12.48;62.28
64683;BME280;51107;47.652;19.016;2023-03-30T14:28:34;99760.66;;;12.43;62.18
64683;BME280;51107;47.652;19.016;2023-03-30T14:31:11;99753.78;;;12.50;63.78
64683;BME280;51107;47.652;19.016;2023-03-30T14:33:40;99743.00;;;12.53;63.53
64683;BME280;51107;47.652;19.016;2023-03-30T14:36:11;99742.19;;;12.52;64.30
64683;BME280;51107;47.652;19.016;2023-03-30T14:38:44;99735.00;;;12.54;65.73
64683;BME280;51107;47.652;19.016;2023-03-30T14:46:46;99718.50;;;12.54;64.21
64683;BME280;51107;47.652;19.016;2023-03-30T14:49:27;99717.38;;;12.56;64.76
64683;BME280;51107;47.652;19.016;2023-03-30T14:52:41;99707.91;;;12.55;65.82
64683;BME280;51107;47.652;19.016;2023-03-30T14:55:17;99696.94;;;12.60;66.18
64683;BME280;51107;47.652;19.016;2023-03-30T14:57:48;99697.78;;;12.61;65.84
64683;BME280;51107;47.652;19.016;2023-03-30T15:00:19;99703.00;;;12.69;65.56
64683;BME280;51107;47.652;19.016;2023-03-30T15:02:51;99699.34;;;12.78;65.48
64683;BME280;51107;47.652;19.016;2023-03-30T15:05:24;99693.50;;;12.68;65.44
64683;BME280;51107;47.652;19.016;2023-03-30T15:07:54;99696.75;;;12.78;65.43
64683;BME280;51107;47.652;19.016;2023-03-30T15:10:32;99690.88;;;12.76;64.81
64683;BME280;51107;47.652;19.016;2023-03-30T15:13:04;99688.94;;;12.62;66.33
64683;BME280;51107;47.652;19.016;2023-03-30T15:15:34;99684.03;;;12.58;65.97
64683;BME280;51107;47.652;19.016;2023-03-30T15:18:03;99687.00;;;12.55;65.15
64683;BME280;51107;47.652;19.016;2023-03-30T15:20:32;99688.94;;;12.53;65.31
64683;BME280;51107;47.652;19.016;2023-03-30T15:23:00;99688.31;;;12.51;65.36
64683;BME280;51107;47.652;19.016;2023-03-30T15:25:32;99699.09;;;12.56;66.21
64683;BME280;51107;47.652;19.016;2023-03-30T15:28:12;99704.59;;;12.62;67.09
64683;BME280;51107;47.652;19.016;2023-03-30T15:30:43;99704.78;;;12.52;67.43
64683;BME280;51107;47.652;19.016;2023-03-30T15:33:43;99706.25;;;12.46;68.58
64683;BME280;51107;47.652;19.016;2023-03-30T15:38:49;99713.63;;;12.34;69.39
64683;BME280;51107;47.652;19.016;2023-03-30T15:41:41;99702.69;;;12.31;71.71